sensor_id;sensor_type;location;lat;lon;timestamp;temperature;humidity
45315;SHT31;31051;51.540;5.852;2023-07-22T08:06:44;16.9;77.4
45315;SHT31;31051;51.540;5.852;2023-07-22T08:19:42;17.2;75.2
45315;SHT31;31051;51.540;5.852;2023-07-22T08:32:31;17.7;72.8
45315;SHT31;31051;51.540;5.852;2023-07-22T08:45:31;18.1;72.1
45315;SHT31;31051;51.540;5.852;2023-07-22T08:58:29;18.2;71.4
45315;SHT31;31051;51.540;5.852;2023-07-22T09:11:17;18.3;72.5
45315;SHT31;31051;51.540;5.852;2023-07-22T09:24:06;18.2;70.8
45315;SHT31;31051;51.540;5.852;2023-07-22T09:36:55;18.1;74.7
45315;SHT31;31051;51.540;5.852;2023-07-22T09:49:55;18.5;68.1
45315;SHT31;31051;51.540;5.852;2023-07-22T10:02:54;19.6;63.6
45315;SHT31;31051;51.540;5.852;2023-07-22T10:15:53;19.3;65.5
45315;SHT31;31051;51.540;5.852;2023-07-22T10:28:52;19.4;65.2
45315;SHT31;31051;51.540;5.852;2023-07-22T10:41:41;19.9;64.6
45315;SHT31;31051;51.540;5.852;2023-07-22T10:54:40;18.8;66.2
45315;SHT31;31051;51.540;5.852;2023-07-22T11:07:39;18.9;66.7
45315;SHT31;31051;51.540;5.852;2023-07-22T11:20:27;19.9;64.4
45315;SHT31;31051;51.540;5.852;2023-07-22T11:33:17;20.3;59.8
45315;SHT31;31051;51.540;5.852;2023-07-22T11:46:15;20.3;56.0
45315;SHT31;31051;51.540;5.852;2023-07-22T11:59:04;20.5;59.1
45315;SHT31;31051;51.540;5.852;2023-07-22T12:12:03;20.3;61.1
45315;SHT31;31051;51.540;5.852;2023-07-22T12:24:52;20.6;60.8
45315;SHT31;31051;51.540;5.852;2023-07-22T12:37:50;20.5;57.5
45315;SHT31;31051;51.540;5.852;2023-07-22T12:50:40;20.4;56.9
45315;SHT31;31051;51.540;5.852;2023-07-22T13:03:38;20.9;57.4
45315;SHT31;31051;51.540;5.852;2023-07-22T13:16:27;20.9;54.5
45315;SHT31;31051;51.540;5.852;2023-07-22T13:29:15;20.8;55.6
45315;SHT31;31051;51.540;5.852;2023-07-22T13:42:03;20.7;57.9
45315;SHT31;31051;51.540;5.852;2023-07-22T13:54:52;21.0;52.5
45315;SHT31;31051;51.540;5.852;2023-07-22T14:07:41;21.2;55.8
45315;SHT31;31051;51.540;5.852;2023-07-22T14:20:40;21.1;53.4
45315;SHT31;31051;51.540;5.852;2023-07-22T14:33:28;21.7;51.9
45315;SHT31;31051;51.540;5.852;2023-07-22T14:46:16;21.4;50.6
45315;SHT31;31051;51.540;5.852;2023-07-22T14:59:05;21.2;56.2
45315;SHT31;31051;51.540;5.852;2023-07-22T15:11:54;20.8;52.6
45315;SHT31;31051;51.540;5.852;2023-07-22T15:24:53;20.9;51.8
45315;SHT31;31051;51.540;5.852;2023-07-22T15:37:42;20.3;55.3
45315;SHT31;31051;51.540;5.852;2023-07-22T15:50:40;20.3;53.8
45315;SHT31;31051;51.540;5.852;2023-07-22T16:03:29;20.6;53.7
45315;SHT31;31051;51.540;5.852;2023-07-22T16:16:17;20.8;54.5
45315;SHT31;31051;51.540;5.852;2023-07-22T16:29:05;20.5;58.2
45315;SHT31;31051;51.540;5.852;2023-07-22T16:41:55;20.0;61.2
45315;SHT31;31051;51.540;5.852;2023-07-22T16:54:54;19.2;61.6
45315;SHT31;31051;51.540;5.852;2023-07-22T17:07:54;18.4;62.4
45315;SHT31;31051;51.540;5.852;2023-07-22T17:20:53;18.2;64.8
45315;SHT31;31051;51.540;5.852;2023-07-22T17:33:52;18.0;65.2
45315;SHT31;31051;51.540;5.852;2023-07-22T17:46:52;17.9;64.7
45315;SHT31;31051;51.540;5.852;2023-07-22T17:59:51;17.9;65.5
45315;SHT31;31051;51.540;5.852;2023-07-22T18:12:51;18.5;61.8
45315;SHT31;31051;51.540;5.852;2023-07-22T18:25:50;18.6;62.1
45315;SHT31;31051;51.540;5.852;2023-07-22T18:38:49;18.7;62.4
45315;SHT31;31051;51.540;5.852;2023-07-22T18:51:49;18.7;63.3
45315;SHT31;31051;51.540;5.852;2023-07-22T19:04:48;18.3;64.3
45315;SHT31;31051;51.540;5.852;2023-07-22T19:17:48;17.6;68.4
45315;SHT31;31051;51.540;5.852;2023-07-22T19:30:47;17.0;72.6
45315;SHT31;31051;51.540;5.852;2023-07-22T19:43:45;16.9;74.8
45315;SHT31;31051;51.540;5.852;2023-07-22T19:56:34;16.7;77.8
45315;SHT31;31051;51.540;5.852;2023-07-22T20:09:22;16.6;78.5
45315;SHT31;31051;51.540;5.852;2023-07-22T20:22:11;16.4;79.8
45315;SHT31;31051;51.540;5.852;2023-07-22T20:35:11;16.3;81.4
45315;SHT31;31051;51.540;5.852;2023-07-22T20:48:10;16.1;82.8
45315;SHT31;31051;51.540;5.852;2023-07-22T21:01:09;16.2;83.1
45315;SHT31;31051;51.540;5.852;2023-07-22T21:14:08;16.3;83.6
45315;SHT31;31051;51.540;5.852;2023-07-22T21:26:57;16.1;84.0
45315;SHT31;31051;51.540;5.852;2023-07-22T21:39:56;16.0;84.2
45315;SHT31;31051;51.540;5.852;2023-07-22T21:52:56;15.9;84.8
45315;SHT31;31051;51.540;5.852;2023-07-22T22:05:55;15.9;85.1
45315;SHT31;31051;51.540;5.852;2023-07-22T22:18:55;16.0;84.7
45315;SHT31;31051;51.540;5.852;2023-07-22T22:44:53;15.7;85.1
45315;SHT31;31051;51.540;5.852;2023-07-22T22:57:53;15.4;85.8
45315;SHT31;31051;51.540;5.852;2023-07-22T23:10:52;15.5;85.9
45315;SHT31;31051;51.540;5.852;2023-07-22T23:23:52;15.4;86.1
45315;SHT31;31051;51.540;5.852;2023-07-22T23:36:51;15.4;85.9
45315;SHT31;31051;51.540;5.852;2023-07-22T23:49:50;15.5;85.6
